ADDS METAR Data

Data at: 0534 UTC 19 Jan 2018

METAR for:KMLT (Millinocket Muni, ME, US)
Text:KMLT 190453Z AUTO 32006KT 9SM FEW027 M10/M11 A2985 RMK AO2 SLP120 I1000 T11001106 410221117
Temperature:-10.0°C ( 14°F)
Dewpoint:-10.6°C ( 13°F) [RH = 95%]
Pressure (altimeter):29.85 inches Hg (1010.9 mb) [Sea level pressure: 1012.0 mb]
Winds:from the NW (320 degrees) at 7 MPH (6 knots; 3.1 m/s)
Visibility: 9 sm ( 14 km)
Ceiling:at least 12,000 feet AGL
Clouds: few clouds at 2700 feet AGL
QC Flag:automated observation with no human augmentation